Time;durP1;ratioP1;P1;durP2;ratioP2;P2;SDS_P1;SDS_P2;PMS_P1;PMS_P2;Temp;Humidity;BMP_temperature;BMP_pressure;BME280_temperature;BME280_humidity;BME280_pressure;Samples;Min_cycle;Max_cycle;Signal;HPM_P1;HPM_P2
2023/10/22 00:00:10;;;;;;;1.20;0.40;;;;;;;;;;5050562;28;20445;-56
2023/10/22 00:02:39;;;;;;;1.30;0.50;;;;;;;;;;5050468;28;20477;-58
2023/10/22 00:05:06;;;;;;;1.20;0.40;;;;;;;;;;5050537;28;20449;-57
2023/10/22 00:07:34;;;;;;;1.30;0.47;;;;;;;;;;5050944;28;20503;-57
2023/10/22 00:10:01;;;;;;;1.20;0.40;;;;;;;;;;5050424;28;20460;-56
2023/10/22 00:12:30;;;;;;;1.80;0.97;;;;;;;;;;5050996;28;20491;-58
2023/10/22 00:14:57;;;;;;;1.30;0.57;;;;;;;;;;5050090;28;20465;-57
2023/10/22 00:17:24;;;;;;;1.20;0.43;;;;;;;;;;5050246;28;20952;-57
2023/10/22 00:19:52;;;;;;;1.43;0.60;;;;;;;;;;5050364;28;20768;-59
2023/10/22 00:22:19;;;;;;;1.20;0.40;;;;;;;;;;5050050;28;20911;-57
2023/10/22 00:24:46;;;;;;;1.40;0.60;;;;;;;;;;5050318;28;20445;-58
2023/10/22 00:27:13;;;;;;;1.60;0.60;;;;;;;;;;5049966;28;20473;-56
2023/10/22 00:29:42;;;;;;;1.77;0.77;;;;;;;;;;5048675;28;20473;-58
2023/10/22 00:32:10;;;;;;;1.50;0.60;;;;;;;;;;5047766;28;20897;-56
2023/10/22 00:34:37;;;;;;;1.30;0.50;;;;;;;;;;5048616;28;20445;-56
2023/10/22 00:37:04;;;;;;;1.20;0.50;;;;;;;;;;5048683;28;20446;-56
2023/10/22 00:39:31;;;;;;;1.20;0.40;;;;;;;;;;5048529;28;20791;-56
2023/10/22 00:41:59;;;;;;;1.30;0.60;;;;;;;;;;5048638;28;20433;-57
2023/10/22 00:44:26;;;;;;;1.30;0.50;;;;;;;;;;5049523;28;20503;-57
2023/10/22 00:46:55;;;;;;;1.77;0.50;;;;;;;;;;5049978;28;20868;-58
2023/10/22 00:49:22;;;;;;;1.20;0.50;;;;;;;;;;5050405;28;20764;-58
2023/10/22 00:51:50;;;;;;;1.40;0.50;;;;;;;;;;5049561;28;20480;-56
2023/10/22 00:54:18;;;;;;;1.30;0.50;;;;;;;;;;5046237;28;20456;-56
2023/10/22 00:56:46;;;;;;;1.40;0.40;;;;;;;;;;5042843;28;20489;-58
2023/10/22 00:59:13;;;;;;;1.40;0.50;;;;;;;;;;5049853;28;20853;-56
2023/10/22 01:01:42;;;;;;;2.13;0.50;;;;;;;;;;5049458;28;20874;-58
2023/10/22 01:04:11;;;;;;;1.60;0.60;;;;;;;;;;5043191;28;20996;-58
2023/10/22 01:06:38;;;;;;;1.40;0.50;;;;;;;;;;5041499;28;20952;-58
2023/10/22 01:09:09;;;;;;;1.27;0.50;;;;;;;;;;5044628;28;20540;-58
2023/10/22 01:11:38;;;;;;;2.50;0.73;;;;;;;;;;5047620;28;20481;-57
2023/10/22 01:14:05;;;;;;;1.37;0.63;;;;;;;;;;5047705;28;20461;-57
2023/10/22 01:16:33;;;;;;;2.13;0.50;;;;;;;;;;5046154;28;20450;-58
2023/10/22 01:19:00;;;;;;;1.63;0.60;;;;;;;;;;5043372;28;20443;-57
2023/10/22 01:21:29;;;;;;;1.30;0.60;;;;;;;;;;5045672;28;20453;-58
2023/10/22 01:23:58;;;;;;;1.83;0.70;;;;;;;;;;5049192;28;20515;-58
2023/10/22 01:26:25;;;;;;;1.30;0.50;;;;;;;;;;5049359;28;20441;-55
2023/10/22 01:28:53;;;;;;;1.30;0.40;;;;;;;;;;5049185;28;20446;-55
2023/10/22 01:31:21;;;;;;;1.30;0.50;;;;;;;;;;5049620;28;20574;-55
2023/10/22 01:33:48;;;;;;;1.30;0.70;;;;;;;;;;5049292;28;20566;-58
2023/10/22 01:36:15;;;;;;;3.63;0.60;;;;;;;;;;5049554;28;20470;-58
2023/10/22 01:38:43;;;;;;;1.20;0.40;;;;;;;;;;5049117;28;20471;-55
2023/10/22 01:41:11;;;;;;;1.30;0.67;;;;;;;;;;5049220;28;20986;-56
2023/10/22 01:43:38;;;;;;;4.90;3.23;;;;;;;;;;5051500;28;20465;-58
2023/10/22 01:46:06;;;;;;;4.90;3.33;;;;;;;;;;5051916;28;20444;-57
2023/10/22 01:48:33;;;;;;;1.67;0.80;;;;;;;;;;5051571;28;20453;-57
2023/10/22 01:51:00;;;;;;;1.50;0.47;;;;;;;;;;5053036;28;20480;-57
2023/10/22 01:53:27;;;;;;;1.20;0.50;;;;;;;;;;5052623;28;20498;-57
2023/10/22 01:55:55;;;;;;;1.53;0.50;;;;;;;;;;5053048;28;20584;-57
2023/10/22 01:58:24;;;;;;;1.30;0.50;;;;;;;;;;5050769;28;22045;-57
2023/10/22 02:01:01;;;;;;;1.40;0.77;;;;;;;;;;5051408;28;20499;-57
2023/10/22 02:03:29;;;;;;;1.40;0.70;;;;;;;;;;5051043;28;20530;-57
2023/10/22 02:05:56;;;;;;;2.00;0.60;;;;;;;;;;5051226;28;20970;-57
2023/10/22 02:08:23;;;;;;;1.50;0.60;;;;;;;;;;5049221;28;20449;-57
2023/10/22 02:10:50;;;;;;;1.50;0.60;;;;;;;;;;5051032;28;20495;-57
2023/10/22 02:13:18;;;;;;;3.33;1.40;;;;;;;;;;5050963;28;20519;-57
2023/10/22 02:15:47;;;;;;;1.50;0.80;;;;;;;;;;5052459;28;20456;-58
2023/10/22 02:18:14;;;;;;;1.60;0.80;;;;;;;;;;5052479;28;20794;-58
2023/10/22 02:20:42;;;;;;;1.30;0.53;;;;;;;;;;5052521;28;20947;-57
2023/10/22 02:23:09;;;;;;;1.20;0.50;;;;;;;;;;5052301;28;20484;-58
2023/10/22 02:25:36;;;;;;;1.30;0.60;;;;;;;;;;5052485;28;20514;-57
2023/10/22 02:28:03;;;;;;;1.63;0.70;;;;;;;;;;5050575;28;20951;-58
2023/10/22 02:30:31;;;;;;;1.27;0.50;;;;;;;;;;5052187;28;20445;-58
2023/10/22 02:32:59;;;;;;;1.30;0.60;;;;;;;;;;5051649;28;20517;-57
2023/10/22 02:35:27;;;;;;;1.20;0.60;;;;;;;;;;5052302;28;20969;-58
2023/10/22 02:37:54;;;;;;;1.40;0.53;;;;;;;;;;5051985;28;20445;-57
2023/10/22 02:40:21;;;;;;;1.30;0.60;;;;;;;;;;5052210;28;20536;-57
2023/10/22 02:42:49;;;;;;;1.40;0.70;;;;;;;;;;5051910;28;20518;-57
2023/10/22 02:45:16;;;;;;;1.40;0.70;;;;;;;;;;5051922;28;20528;-57
2023/10/22 02:47:43;;;;;;;1.30;0.60;;;;;;;;;;5051562;28;20952;-57
2023/10/22 02:50:12;;;;;;;1.30;0.50;;;;;;;;;;5051888;28;20477;-58
2023/10/22 02:52:40;;;;;;;1.57;0.80;;;;;;;;;;5051594;28;20512;-57
2023/10/22 02:55:08;;;;;;;1.47;0.80;;;;;;;;;;5050850;28;20510;-58
2023/10/22 02:57:35;;;;;;;1.40;0.80;;;;;;;;;;5051474;28;20488;-58
2023/10/22 03:00:02;;;;;;;1.60;0.80;;;;;;;;;;5049923;28;21299;-58
2023/10/22 03:02:30;;;;;;;1.60;0.80;;;;;;;;;;5047424;28;20984;-57
2023/10/22 03:04:57;;;;;;;1.50;0.67;;;;;;;;;;5051523;28;20449;-57
2023/10/22 03:07:27;;;;;;;1.47;0.73;;;;;;;;;;5051137;28;21054;-57
2023/10/22 03:09:54;;;;;;;1.60;0.70;;;;;;;;;;5051574;28;20452;-58
2023/10/22 03:12:22;;;;;;;1.50;0.87;;;;;;;;;;5050865;28;20501;-55
2023/10/22 03:14:51;;;;;;;1.83;0.90;;;;;;;;;;5051136;28;20955;-57
2023/10/22 03:17:19;;;;;;;1.40;0.80;;;;;;;;;;5050529;28;20453;-57
2023/10/22 03:19:46;;;;;;;1.50;0.70;;;;;;;;;;5049998;28;20442;-58
2023/10/22 03:22:15;;;;;;;1.70;0.97;;;;;;;;;;5049482;28;20638;-58
2023/10/22 03:24:43;;;;;;;1.60;0.80;;;;;;;;;;5045497;28;20481;-57
2023/10/22 03:27:11;;;;;;;2.27;1.10;;;;;;;;;;5049689;28;20473;-58
2023/10/22 03:29:38;;;;;;;2.40;0.97;;;;;;;;;;5049918;28;20449;-58
2023/10/22 03:32:08;;;;;;;1.60;1.00;;;;;;;;;;5049321;28;20485;-58
2023/10/22 03:34:35;;;;;;;1.50;0.90;;;;;;;;;;5050138;28;20535;-57
2023/10/22 03:37:04;;;;;;;1.40;0.80;;;;;;;;;;5051202;28;20463;-57
2023/10/22 03:39:31;;;;;;;3.50;0.80;;;;;;;;;;5049585;28;20962;-57
2023/10/22 03:42:00;;;;;;;1.40;0.90;;;;;;;;;;5051149;28;20936;-57
2023/10/22 03:44:27;;;;;;;1.93;1.20;;;;;;;;;;5050979;28;20551;-57
2023/10/22 03:46:55;;;;;;;1.30;0.70;;;;;;;;;;5050484;28;20807;-57
2023/10/22 03:49:22;;;;;;;1.50;1.00;;;;;;;;;;5050460;28;20503;-57
2023/10/22 03:51:49;;;;;;;2.07;0.80;;;;;;;;;;5050646;28;20625;-57
2023/10/22 03:54:16;;;;;;;1.70;0.90;;;;;;;;;;5050498;28;20945;-58
2023/10/22 03:56:44;;;;;;;2.03;1.10;;;;;;;;;;5050431;28;20449;-58
2023/10/22 03:59:12;;;;;;;3.17;1.30;;;;;;;;;;5050343;28;20870;-58
2023/10/22 04:01:39;;;;;;;2.63;1.40;;;;;;;;;;5050589;28;20437;-58
2023/10/22 04:04:07;;;;;;;1.60;0.90;;;;;;;;;;5050181;28;20895;-58
2023/10/22 04:06:34;;;;;;;2.53;1.00;;;;;;;;;;5050177;28;20448;-57
2023/10/22 04:09:01;;;;;;;1.70;1.13;;;;;;;;;;5050373;28;20516;-57
2023/10/22 04:11:29;;;;;;;1.83;1.40;;;;;;;;;;5050416;28;20519;-57
2023/10/22 04:13:56;;;;;;;2.07;1.00;;;;;;;;;;5050135;28;20990;-57
2023/10/22 04:16:25;;;;;;;1.60;0.90;;;;;;;;;;5050735;28;20445;-58
2023/10/22 04:18:52;;;;;;;1.77;1.20;;;;;;;;;;5050376;28;20445;-57
2023/10/22 04:21:19;;;;;;;2.00;1.30;;;;;;;;;;5049241;28;21033;-58
2023/10/22 04:23:47;;;;;;;1.60;1.17;;;;;;;;;;5048736;28;20477;-57
2023/10/22 04:26:14;;;;;;;1.50;0.73;;;;;;;;;;5049030;28;20445;-57
2023/10/22 04:28:42;;;;;;;1.67;0.97;;;;;;;;;;5048978;28;20437;-57
2023/10/22 04:31:09;;;;;;;1.50;0.97;;;;;;;;;;5048809;28;20445;-58
2023/10/22 04:33:38;;;;;;;1.63;1.10;;;;;;;;;;5048209;28;20910;-58
2023/10/22 04:36:06;;;;;;;1.70;1.23;;;;;;;;;;5049525;28;20503;-57
2023/10/22 04:38:33;;;;;;;1.90;1.20;;;;;;;;;;5050243;28;20527;-57
2023/10/22 04:41:00;;;;;;;2.13;1.37;;;;;;;;;;5050137;28;20437;-57
2023/10/22 04:43:30;;;;;;;2.63;1.37;;;;;;;;;;5049876;28;20519;-57
2023/10/22 04:45:59;;;;;;;2.70;1.60;;;;;;;;;;5050004;28;21002;-57
2023/10/22 04:48:26;;;;;;;2.83;1.20;;;;;;;;;;5049902;28;20991;-57
2023/10/22 04:50:55;;;;;;;2.10;1.03;;;;;;;;;;5049809;28;20441;-58
2023/10/22 04:53:22;;;;;;;2.47;0.87;;;;;;;;;;5049574;28;20489;-58
2023/10/22 04:55:55;;;;;;;1.60;1.00;;;;;;;;;;5049746;28;20453;-55
2023/10/22 04:58:23;;;;;;;1.87;1.17;;;;;;;;;;5050201;28;20527;-57
2023/10/22 05:00:51;;;;;;;1.53;0.90;;;;;;;;;;5049791;28;20495;-56
2023/10/22 05:03:18;;;;;;;1.50;1.00;;;;;;;;;;5049517;28;20519;-58
2023/10/22 05:05:46;;;;;;;2.60;1.60;;;;;;;;;;5053958;28;20515;-58
2023/10/22 05:08:14;;;;;;;4.97;2.33;;;;;;;;;;5049895;28;20453;-56
2023/10/22 05:10:41;;;;;;;2.97;2.50;;;;;;;;;;5049715;28;20445;-56
2023/10/22 05:13:10;;;;;;;2.60;2.27;;;;;;;;;;5049276;28;20554;-57
2023/10/22 05:15:37;;;;;;;2.23;2.03;;;;;;;;;;5049971;28;20506;-56
2023/10/22 05:18:05;;;;;;;1.70;1.30;;;;;;;;;;5050984;28;20911;-58
2023/10/22 05:20:33;;;;;;;1.80;1.20;;;;;;;;;;5053601;28;20449;-57
2023/10/22 05:23:00;;;;;;;1.53;0.90;;;;;;;;;;5053261;28;20956;-56
2023/10/22 05:25:29;;;;;;;1.40;0.80;;;;;;;;;;5053493;28;20495;-56
2023/10/22 05:27:56;;;;;;;1.47;0.87;;;;;;;;;;5049079;28;20449;-58
2023/10/22 05:30:23;;;;;;;2.03;0.70;;;;;;;;;;5053464;28;20449;-58
2023/10/22 05:32:50;;;;;;;1.60;0.70;;;;;;;;;;5053158;28;20488;-58
2023/10/22 05:35:18;;;;;;;1.60;1.00;;;;;;;;;;5053640;28;20533;-58
2023/10/22 05:37:45;;;;;;;5.33;4.63;;;;;;;;;;5053116;28;20535;-58
2023/10/22 05:40:14;;;;;;;5.00;2.90;;;;;;;;;;5053254;28;20449;-58
2023/10/22 05:42:43;;;;;;;3.80;3.00;;;;;;;;;;5068758;22;20558;-54
2023/10/22 05:45:11;;;;;;;2.80;2.50;;;;;;;;;;5053639;28;20486;-54
2023/10/22 05:47:38;;;;;;;2.70;2.30;;;;;;;;;;5049174;28;20471;-56
2023/10/22 05:50:05;;;;;;;2.70;2.27;;;;;;;;;;5053627;28;20499;-54
2023/10/22 05:52:34;;;;;;;2.37;2.17;;;;;;;;;;5052853;28;20485;-54
2023/10/22 05:55:01;;;;;;;2.67;2.40;;;;;;;;;;5053062;28;20533;-54
2023/10/22 05:57:28;;;;;;;3.27;2.97;;;;;;;;;;5052888;28;20499;-55
2023/10/22 05:59:58;;;;;;;3.70;3.03;;;;;;;;;;5053179;28;20506;-55
2023/10/22 06:02:26;;;;;;;3.60;2.60;;;;;;;;;;5053290;28;20978;-54
2023/10/22 06:04:53;;;;;;;3.07;2.20;;;;;;;;;;5046803;28;20869;-54
2023/10/22 06:07:20;;;;;;;2.30;2.10;;;;;;;;;;5048348;28;21037;-56
2023/10/22 06:09:48;;;;;;;3.73;2.20;;;;;;;;;;5053080;28;20455;-54
2023/10/22 06:12:16;;;;;;;2.40;2.00;;;;;;;;;;5052849;28;20477;-54
2023/10/22 06:14:44;;;;;;;4.77;2.83;;;;;;;;;;5043058;28;20705;-56
2023/10/22 06:17:12;;;;;;;2.60;1.47;;;;;;;;;;5045626;28;20457;-57
2023/10/22 06:19:40;;;;;;;1.67;0.93;;;;;;;;;;5050210;28;20445;-54
2023/10/22 06:22:07;;;;;;;1.90;1.33;;;;;;;;;;5050228;28;20963;-55
2023/10/22 06:24:34;;;;;;;3.47;2.83;;;;;;;;;;5050271;28;20477;-55
2023/10/22 06:27:01;;;;;;;4.67;3.03;;;;;;;;;;5045149;28;20451;-57
2023/10/22 06:29:29;;;;;;;3.70;3.23;;;;;;;;;;5048889;28;20469;-54
2023/10/22 06:31:56;;;;;;;5.27;3.90;;;;;;;;;;5048154;28;20535;-54
2023/10/22 06:34:25;;;;;;;4.20;3.60;;;;;;;;;;5049707;28;20473;-55
2023/10/22 06:36:52;;;;;;;4.50;4.10;;;;;;;;;;5051076;28;20465;-54
2023/10/22 06:39:20;;;;;;;4.00;3.60;;;;;;;;;;5045986;28;20808;-54
2023/10/22 06:41:47;;;;;;;5.50;3.47;;;;;;;;;;5049638;28;20445;-54
2023/10/22 06:44:14;;;;;;;3.23;2.93;;;;;;;;;;5065106;28;20491;-57
2023/10/22 06:46:41;;;;;;;4.20;3.37;;;;;;;;;;5063014;28;20476;-54
2023/10/22 06:49:09;;;;;;;5.20;4.23;;;;;;;;;;5069433;28;20452;-56
2023/10/22 06:51:38;;;;;;;6.23;5.20;;;;;;;;;;5069622;28;20441;-54
2023/10/22 06:54:06;;;;;;;7.30;6.30;;;;;;;;;;5069214;28;20518;-55
2023/10/22 06:56:33;;;;;;;9.83;8.87;;;;;;;;;;5067261;28;20456;-54
2023/10/22 06:59:02;;;;;;;7.20;6.50;;;;;;;;;;5069268;28;20468;-54
2023/10/22 07:01:29;;;;;;;6.13;5.53;;;;;;;;;;5069211;28;20529;-54
2023/10/22 07:03:57;;;;;;;6.60;5.97;;;;;;;;;;5068976;28;20712;-56
2023/10/22 07:06:24;;;;;;;6.40;5.80;;;;;;;;;;5062137;28;20444;-54
2023/10/22 07:08:53;;;;;;;5.50;4.97;;;;;;;;;;5068805;28;20954;-55
2023/10/22 07:11:20;;;;;;;5.73;5.23;;;;;;;;;;5069130;28;20788;-54
2023/10/22 07:13:48;;;;;;;5.30;4.70;;;;;;;;;;5068807;28;20998;-55
2023/10/22 07:16:15;;;;;;;5.10;4.70;;;;;;;;;;5064848;28;20439;-54
2023/10/22 07:18:43;;;;;;;4.87;4.40;;;;;;;;;;5064992;28;20533;-56
2023/10/22 07:21:10;;;;;;;6.10;5.40;;;;;;;;;;5068794;28;20561;-58
2023/10/22 07:23:37;;;;;;;6.70;5.03;;;;;;;;;;5068628;28;20465;-55
2023/10/22 07:26:06;;;;;;;5.90;5.30;;;;;;;;;;5067015;28;20437;-56
2023/10/22 07:28:33;;;;;;;6.57;4.77;;;;;;;;;;5068550;28;20448;-55
2023/10/22 07:31:00;;;;;;;4.67;4.27;;;;;;;;;;5068573;28;20471;-56
2023/10/22 07:33:28;;;;;;;4.83;4.43;;;;;;;;;;5057175;28;21003;-55
2023/10/22 07:35:55;;;;;;;5.70;4.40;;;;;;;;;;5063552;28;20481;-56
2023/10/22 07:38:23;;;;;;;4.50;4.10;;;;;;;;;;5055703;28;20445;-58
2023/10/22 07:40:55;;;;;;;2.90;2.50;;;;;;;;;;5060776;28;20817;-57
2023/10/22 07:43:25;;;;;;;4.13;3.07;;;;;;;;;;5066751;28;20464;-57
2023/10/22 07:45:52;;;;;;;3.70;3.27;;;;;;;;;;5068660;28;20517;-55
2023/10/22 07:48:19;;;;;;;13.67;12.30;;;;;;;;;;5081735;28;20483;-56
2023/10/22 07:50:47;;;;;;;5.27;4.10;;;;;;;;;;5087920;28;20889;-56
2023/10/22 07:53:14;;;;;;;2.97;2.57;;;;;;;;;;5085841;28;20506;-57
2023/10/22 07:55:42;;;;;;;2.80;2.20;;;;;;;;;;5087215;28;20467;-57
2023/10/22 07:58:09;;;;;;;2.60;1.87;;;;;;;;;;5083594;28;20937;-57
2023/10/22 08:00:38;;;;;;;3.17;2.30;;;;;;;;;;5083078;28;20469;-55
2023/10/22 08:03:05;;;;;;;3.77;3.20;;;;;;;;;;5082695;28;20532;-54
2023/10/22 08:05:32;;;;;;;3.40;2.70;;;;;;;;;;5087533;28;20525;-55
2023/10/22 08:07:59;;;;;;;5.70;4.00;;;;;;;;;;5075585;28;20480;-54
2023/10/22 08:10:26;;;;;;;3.67;3.30;;;;;;;;;;5076966;28;20444;-56
2023/10/22 08:12:53;;;;;;;3.77;3.43;;;;;;;;;;5081258;28;20835;-54
2023/10/22 08:15:20;;;;;;;4.00;3.60;;;;;;;;;;5070751;28;20955;-54
2023/10/22 08:17:49;;;;;;;4.50;3.00;;;;;;;;;;5087185;28;20529;-56
2023/10/22 08:20:16;;;;;;;4.07;2.90;;;;;;;;;;5086937;28;21018;-54
2023/10/22 08:22:44;;;;;;;3.93;3.00;;;;;;;;;;5078230;28;20474;-54
2023/10/22 08:25:11;;;;;;;3.77;3.13;;;;;;;;;;5083296;28;20480;-54
2023/10/22 08:27:38;;;;;;;3.30;3.00;;;;;;;;;;5086290;28;20742;-55
2023/10/22 08:30:06;;;;;;;3.53;3.23;;;;;;;;;;5087039;28;20467;-54
2023/10/22 08:32:34;;;;;;;2.65;2.45;;;;;;;;;;5078149;28;21039;-54
2023/10/22 08:35:03;;;;;;;5.13;4.20;;;;;;;;;;5068492;28;20807;-54
2023/10/22 08:37:30;;;;;;;4.90;3.63;;;;;;;;;;5075287;28;20440;-54
2023/10/22 08:39:57;;;;;;;3.17;2.27;;;;;;;;;;5075978;28;20946;-57
2023/10/22 08:42:25;;;;;;;2.73;2.27;;;;;;;;;;5071977;28;20569;-52
2023/10/22 08:44:53;;;;;;;3.10;2.70;;;;;;;;;;5074225;28;20522;-54
2023/10/22 08:47:20;;;;;;;2.80;2.40;;;;;;;;;;5078592;28;20880;-54
2023/10/22 08:49:49;;;;;;;5.13;3.07;;;;;;;;;;5086347;28;20462;-54
2023/10/22 08:52:18;;;;;;;4.60;2.50;;;;;;;;;;5081283;28;20444;-54
2023/10/22 08:54:46;;;;;;;3.07;2.57;;;;;;;;;;5081993;28;21050;-54
2023/10/22 08:57:13;;;;;;;3.33;2.20;;;;;;;;;;5082633;28;20881;-55
2023/10/22 08:59:40;;;;;;;2.80;1.90;;;;;;;;;;5086233;28;20512;-54
2023/10/22 09:02:09;;;;;;;2.10;1.60;;;;;;;;;;5086045;28;20447;-55
2023/10/22 09:04:37;;;;;;;3.13;1.73;;;;;;;;;;5078208;28;20438;-56
2023/10/22 09:07:04;;;;;;;4.40;1.70;;;;;;;;;;5080855;28;20800;-54
2023/10/22 09:09:35;;;;;;;2.43;1.93;;;;;;;;;;5076899;28;20528;-54
2023/10/22 09:12:03;;;;;;;3.17;2.20;;;;;;;;;;5080920;28;20449;-56
2023/10/22 09:14:31;;;;;;;2.17;1.70;;;;;;;;;;5086099;28;20502;-56
2023/10/22 09:16:59;;;;;;;3.17;2.87;;;;;;;;;;5086668;28;20528;-56
2023/10/22 09:19:36;;;;;;;3.00;2.70;;;;;;;;;;5081326;28;20488;-54
2023/10/22 09:22:04;;;;;;;3.67;2.03;;;;;;;;;;5076974;28;20590;-54
2023/10/22 09:24:35;;;;;;;2.60;2.20;;;;;;;;;;5065723;28;21362;-55
2023/10/22 09:27:03;;;;;;;2.50;2.10;;;;;;;;;;5076780;28;20479;-56
2023/10/22 09:29:31;;;;;;;2.83;1.83;;;;;;;;;;5080224;28;21346;-54
2023/10/22 09:31:59;;;;;;;2.60;2.07;;;;;;;;;;5081504;28;20443;-55
2023/10/22 09:34:27;;;;;;;3.60;1.80;;;;;;;;;;5085968;28;20483;-55
2023/10/22 09:36:54;;;;;;;3.37;2.00;;;;;;;;;;5063428;28;20526;-55
2023/10/22 09:39:37;;;;;;;2.10;1.87;;;;;;;;;;5069682;28;20500;-55
2023/10/22 09:42:05;;;;;;;2.20;1.70;;;;;;;;;;5083256;28;21009;-54
2023/10/22 09:44:33;;;;;;;2.00;1.50;;;;;;;;;;5069879;28;20828;-54
2023/10/22 09:47:02;;;;;;;2.93;1.73;;;;;;;;;;5083617;28;20513;-56
2023/10/22 09:49:30;;;;;;;2.30;1.90;;;;;;;;;;5082344;28;20930;-54
2023/10/22 09:51:59;;;;;;;2.50;1.77;;;;;;;;;;5085926;28;20528;-54
2023/10/22 09:54:30;;;;;;;2.27;1.53;;;;;;;;;;5085139;28;20973;-56
2023/10/22 09:56:59;;;;;;;2.13;1.30;;;;;;;;;;5074770;28;20475;-54
2023/10/22 09:59:32;;;;;;;1.90;1.00;;;;;;;;;;5069694;28;20478;-57
2023/10/22 10:01:59;;;;;;;2.13;1.10;;;;;;;;;;5072316;28;20985;-56
2023/10/22 10:04:27;;;;;;;2.07;1.20;;;;;;;;;;5070774;28;20879;-54
2023/10/22 10:06:55;;;;;;;1.70;1.20;;;;;;;;;;5071576;28;20459;-54
2023/10/22 10:09:22;;;;;;;1.70;1.00;;;;;;;;;;5076577;28;20465;-53
2023/10/22 10:11:50;;;;;;;2.00;1.27;;;;;;;;;;5075656;28;21047;-55
2023/10/22 10:14:32;;;;;;;2.40;1.33;;;;;;;;;;5068895;28;20585;-58
2023/10/22 10:17:01;;;;;;;2.10;1.30;;;;;;;;;;5077565;28;20471;-56
2023/10/22 10:19:28;;;;;;;1.93;1.10;;;;;;;;;;5071194;28;20436;-54
2023/10/22 10:21:55;;;;;;;6.47;2.97;;;;;;;;;;5073652;28;20513;-54
2023/10/22 10:24:24;;;;;;;1.90;0.90;;;;;;;;;;5074308;28;20545;-54
2023/10/22 10:26:52;;;;;;;1.97;1.00;;;;;;;;;;5071003;28;20451;-54
2023/10/22 10:29:20;;;;;;;1.37;0.73;;;;;;;;;;5080799;28;20451;-54
2023/10/22 10:31:48;;;;;;;1.70;0.70;;;;;;;;;;5083307;28;20497;-55
2023/10/22 10:34:39;;;;;;;1.70;0.80;;;;;;;;;;5071054;28;20476;-56
2023/10/22 10:37:12;;;;;;;1.70;1.00;;;;;;;;;;5077404;28;20451;-59
2023/10/22 10:39:40;;;;;;;1.60;0.70;;;;;;;;;;5072722;28;20459;-55
2023/10/22 10:42:08;;;;;;;1.67;0.80;;;;;;;;;;5071598;28;20443;-55
2023/10/22 10:44:54;;;;;;;1.40;0.57;;;;;;;;;;5079537;28;20507;-55
2023/10/22 10:47:35;;;;;;;1.37;0.50;;;;;;;;;;5062219;28;20471;-56
2023/10/22 10:50:03;;;;;;;1.50;0.60;;;;;;;;;;5071820;28;20555;-56
2023/10/22 10:52:33;;;;;;;2.87;1.80;;;;;;;;;;5067111;28;20591;-54
2023/10/22 10:55:00;;;;;;;1.30;0.50;;;;;;;;;;5067456;28;20586;-56
2023/10/22 10:57:34;;;;;;;1.70;0.60;;;;;;;;;;5068905;28;20445;-56
2023/10/22 11:00:03;;;;;;;2.57;0.60;;;;;;;;;;5065387;28;20466;-57
2023/10/22 11:02:31;;;;;;;1.30;0.50;;;;;;;;;;5055427;28;20485;-56
2023/10/22 11:04:59;;;;;;;1.77;0.70;;;;;;;;;;5065218;28;20462;-56
2023/10/22 11:07:26;;;;;;;1.20;0.40;;;;;;;;;;5066566;28;20441;-54
2023/10/22 11:09:56;;;;;;;1.20;0.30;;;;;;;;;;5082007;28;20493;-56
2023/10/22 11:12:24;;;;;;;1.30;0.50;;;;;;;;;;5075179;28;20490;-54
2023/10/22 11:14:55;;;;;;;1.40;0.60;;;;;;;;;;5066006;28;20471;-56
2023/10/22 11:17:23;;;;;;;1.40;0.67;;;;;;;;;;5074037;28;20454;-56
2023/10/22 11:19:51;;;;;;;1.60;0.50;;;;;;;;;;5068327;28;20493;-54
2023/10/22 11:22:19;;;;;;;1.30;0.40;;;;;;;;;;5069429;28;20528;-55
2023/10/22 11:24:46;;;;;;;1.30;0.40;;;;;;;;;;5077279;28;20672;-54
2023/10/22 11:27:16;;;;;;;1.60;0.77;;;;;;;;;;5079603;28;20542;-54
2023/10/22 11:29:44;;;;;;;6.00;0.80;;;;;;;;;;5071277;28;20544;-55
2023/10/22 11:32:14;;;;;;;1.40;0.50;;;;;;;;;;5077471;28;20447;-55
2023/10/22 11:34:48;;;;;;;1.60;0.50;;;;;;;;;;5080071;28;20550;-54
2023/10/22 11:37:16;;;;;;;1.30;0.47;;;;;;;;;;5071503;28;21020;-56
2023/10/22 11:39:43;;;;;;;1.37;0.43;;;;;;;;;;5078349;28;20975;-55
2023/10/22 11:42:10;;;;;;;2.27;0.50;;;;;;;;;;5086549;28;20475;-54
2023/10/22 11:44:44;;;;;;;1.30;0.40;;;;;;;;;;5134171;22;21538;-56
2023/10/22 11:47:30;;;;;;;1.50;0.50;;;;;;;;;;5078793;28;20722;-56
2023/10/22 11:49:58;;;;;;;1.30;0.40;;;;;;;;;;5078509;28;20458;-56
2023/10/22 11:52:38;;;;;;;1.70;0.77;;;;;;;;;;5070260;28;20479;-56
2023/10/22 11:55:07;;;;;;;1.80;0.60;;;;;;;;;;5060477;28;21011;-56
2023/10/22 11:57:34;;;;;;;1.50;0.60;;;;;;;;;;5061857;28;20452;-55
2023/10/22 12:00:04;;;;;;;2.00;0.80;;;;;;;;;;5053090;28;20547;-56
2023/10/22 12:02:31;;;;;;;1.50;0.60;;;;;;;;;;5059814;28;20452;-53
2023/10/22 12:04:59;;;;;;;1.93;0.73;;;;;;;;;;5047451;28;20448;-56
2023/10/22 12:07:26;;;;;;;1.27;0.50;;;;;;;;;;5045894;28;20473;-55
2023/10/22 12:09:53;;;;;;;2.13;0.97;;;;;;;;;;5053650;28;20530;-55
2023/10/22 12:12:22;;;;;;;1.30;0.50;;;;;;;;;;5063800;28;20852;-56
2023/10/22 12:14:49;;;;;;;1.40;0.50;;;;;;;;;;5055169;28;20939;-56
2023/10/22 12:17:18;;;;;;;2.47;0.80;;;;;;;;;;5051107;28;20448;-55
2023/10/22 12:19:45;;;;;;;1.50;0.50;;;;;;;;;;5043573;28;20497;-55
2023/10/22 12:22:13;;;;;;;1.50;0.60;;;;;;;;;;5048277;28;20529;-55
2023/10/22 12:24:40;;;;;;;1.30;0.50;;;;;;;;;;5046268;28;20566;-55
2023/10/22 12:27:07;;;;;;;1.40;0.50;;;;;;;;;;5040385;28;20511;-55
2023/10/22 12:29:34;;;;;;;1.50;0.60;;;;;;;;;;5053187;28;20516;-55
2023/10/22 12:32:04;;;;;;;1.50;0.60;;;;;;;;;;5060009;28;20449;-56
2023/10/22 12:34:32;;;;;;;1.60;0.60;;;;;;;;;;5060732;28;20475;-56
2023/10/22 12:36:59;;;;;;;1.30;0.50;;;;;;;;;;5052894;28;20450;-56
2023/10/22 12:39:27;;;;;;;1.50;0.50;;;;;;;;;;5061037;28;20581;-56
2023/10/22 12:41:54;;;;;;;1.30;0.40;;;;;;;;;;5049529;28;20558;-55
2023/10/22 12:44:24;;;;;;;3.10;0.67;;;;;;;;;;5048836;28;20549;-56
2023/10/22 12:46:51;;;;;;;2.00;0.93;;;;;;;;;;5047659;28;20768;-56
2023/10/22 12:49:18;;;;;;;1.47;0.60;;;;;;;;;;5051677;28;20441;-55
2023/10/22 12:51:47;;;;;;;1.67;0.60;;;;;;;;;;5065622;28;20825;-55
2023/10/22 12:54:14;;;;;;;1.30;0.40;;;;;;;;;;5065885;28;20588;-56
2023/10/22 12:56:42;;;;;;;1.30;0.40;;;;;;;;;;5066584;28;20472;-55
2023/10/22 12:59:09;;;;;;;2.00;0.50;;;;;;;;;;5044685;28;20449;-55
2023/10/22 13:01:36;;;;;;;2.23;0.80;;;;;;;;;;5045073;28;20854;-56
2023/10/22 13:04:04;;;;;;;1.30;0.50;;;;;;;;;;5048087;28;20501;-56
2023/10/22 13:06:31;;;;;;;1.80;0.50;;;;;;;;;;5055758;28;20457;-57
2023/10/22 13:09:00;;;;;;;1.47;0.60;;;;;;;;;;5053126;28;20488;-56
2023/10/22 13:11:32;;;;;;;1.40;0.60;;;;;;;;;;5065132;28;20522;-55
2023/10/22 13:13:59;;;;;;;1.40;0.60;;;;;;;;;;5061169;28;21307;-56
2023/10/22 13:16:26;;;;;;;1.37;0.57;;;;;;;;;;5063564;28;21033;-57
2023/10/22 13:18:53;;;;;;;1.30;0.53;;;;;;;;;;5065907;28;20472;-57
2023/10/22 13:21:21;;;;;;;1.40;0.53;;;;;;;;;;5055945;28;20460;-57
2023/10/22 13:23:48;;;;;;;2.00;0.77;;;;;;;;;;5058926;28;20543;-57
2023/10/22 13:26:18;;;;;;;1.60;0.60;;;;;;;;;;5050272;28;20988;-57
2023/10/22 13:28:45;;;;;;;1.53;0.60;;;;;;;;;;5050063;28;20483;-56
2023/10/22 13:31:13;;;;;;;2.50;1.50;;;;;;;;;;5053517;28;20511;-56
2023/10/22 13:33:40;;;;;;;5.67;3.33;;;;;;;;;;5044815;28;20552;-57
2023/10/22 13:36:08;;;;;;;2.93;2.10;;;;;;;;;;5050127;28;20616;-55
2023/10/22 13:38:35;;;;;;;2.57;1.00;;;;;;;;;;5053474;28;20554;-57
2023/10/22 13:41:03;;;;;;;1.50;0.70;;;;;;;;;;5061970;28;20489;-57
2023/10/22 13:43:31;;;;;;;1.93;0.70;;;;;;;;;;5058559;28;20484;-56
2023/10/22 13:46:01;;;;;;;1.47;0.60;;;;;;;;;;5055239;28;20514;-57
2023/10/22 13:48:28;;;;;;;1.50;0.60;;;;;;;;;;5052390;28;20550;-57
2023/10/22 13:50:57;;;;;;;1.40;0.60;;;;;;;;;;5045755;28;20477;-56
2023/10/22 13:53:24;;;;;;;1.87;0.90;;;;;;;;;;5060311;28;20480;-57
2023/10/22 13:55:57;;;;;;;1.70;0.73;;;;;;;;;;5063868;28;20516;-55
2023/10/22 13:58:24;;;;;;;1.40;0.60;;;;;;;;;;5069247;28;20528;-57
2023/10/22 14:00:53;;;;;;;1.80;0.80;;;;;;;;;;5066086;28;20444;-56
2023/10/22 14:03:20;;;;;;;1.40;0.60;;;;;;;;;;5063974;28;20465;-57
2023/10/22 14:05:50;;;;;;;2.00;0.70;;;;;;;;;;5066237;28;20965;-56
2023/10/22 14:08:17;;;;;;;1.77;0.63;;;;;;;;;;5055062;28;20538;-57
2023/10/22 14:10:45;;;;;;;1.50;0.60;;;;;;;;;;5053754;28;20445;-55
2023/10/22 14:13:15;;;;;;;2.77;1.30;;;;;;;;;;5059568;28;20890;-56
2023/10/22 14:15:44;;;;;;;1.67;0.93;;;;;;;;;;5061770;28;20932;-55
2023/10/22 14:18:13;;;;;;;1.43;0.67;;;;;;;;;;5065716;28;20456;-56
2023/10/22 14:20:41;;;;;;;1.50;0.67;;;;;;;;;;5065286;28;20843;-57
2023/10/22 14:23:09;;;;;;;2.10;1.47;;;;;;;;;;5060852;28;20469;-57
2023/10/22 14:25:36;;;;;;;2.00;0.90;;;;;;;;;;5068922;28;20728;-57
2023/10/22 14:28:03;;;;;;;1.33;0.60;;;;;;;;;;5060652;28;20566;-57
2023/10/22 14:30:31;;;;;;;1.70;0.57;;;;;;;;;;5050358;28;20456;-57
2023/10/22 14:32:58;;;;;;;2.50;0.70;;;;;;;;;;5050087;28;20513;-56
2023/10/22 14:35:27;;;;;;;1.50;0.60;;;;;;;;;;5053122;28;20560;-56
2023/10/22 14:37:54;;;;;;;1.40;0.53;;;;;;;;;;5056924;28;20468;-56
2023/10/22 14:40:21;;;;;;;1.50;0.50;;;;;;;;;;5057351;28;20540;-55
2023/10/22 14:42:49;;;;;;;2.03;0.70;;;;;;;;;;5067720;28;20549;-55
2023/10/22 14:45:16;;;;;;;1.97;0.60;;;;;;;;;;5060778;28;20440;-55
2023/10/22 14:47:43;;;;;;;1.50;0.50;;;;;;;;;;5064614;28;21010;-57